Kezdőlap
METAR-TAF:

METAR-TAF

Repülőterek :

Maiduguri, Nigéria

földrajzi szélesség: 11-51N, földrajzi hosszúság: 013-05E, magasság: 354 m

METAR: hiányzik

Idő: 16:08 (15:08 UTC)

Előrejelzés

A jelentés 4 órával és 8 perccel ezelõtt készült, 11:00 UTC
Az előrejelzés 06-én 12 óra UTC és 07-én 18 óra UTC között érvényes
Északkeleti szél 8 kt
Látótávolság 10 km, vagy több
felhőtlen 1500 m magasságban, és nincs gomolyfelhõ
07-én 04 óra UTC és 07-én 09 óra UTC között ideiglenes
Látótávolság: 5000 m
Száraz légköri homály

TAF: DNMA 061100Z 0612/0718 05008KT CAVOK TEMPO 0704/0709 5000 HZ

Meteorológiai megfigyelések és előrejelzések több, mint 4000 repülőtéren (METAR és TAF jelentéseket).

A térképen piros és sárga pontok jelzik az elérhető meteorológiai állomásokat.

Mozgassa az egeret a pont fölött, hogy megjelenjen az állomás neve.

Azután kattintson az időjárási megfigyelések és előrejelzések megtekintéséhez.

A térkép megváltoztatása: kattintson a fekete keresztel jelölt zöld gombra ráközelítéshez, a vonallal jelölt zöld gombra távolításhoz, vagy a zöld nyilakra a szomszédos térképek eléréséhez.


METAR-TAF: